Pagrindinis puslapis
METAR-TAF:

METAR-TAF

Oro uostai :

Jinotega, Nikaragva

platuma: 13-05N, ilguma: 085-59W, Aukštis: 985 m

Dabartinis oras

Ataskaita buvo paskelbta 1 valandą ir 43 minutes, ne 23:00 UTC
Ramus vėjas
Temperatūra 20°C
Drėgmė 100%
Slėgis 1010 hPa
Matomumas: 2000 m
Apsiniaukę ne aukštis 1000 ft
dulksna

METAR: MNJG 222300Z 00000KT 2000 DZ OVC010 20/20 Q1010

Laikas: 18:43 (00:43 UTC)


TAF: trūkstamas

Orai ataskaitas ir orų prognozės (METAR, TAF).

turimą stotys yra geltonos ir raudonos taškus žemėlapyje.

Perkelti pele per norėdami pamatyti stoties vardą.

Tada spustelėkite, norėdami matyti oro stebėjimo ir prognozės.

Norėdami pakeisti žemėlapį: spustelėkite ant žalios mygtukų su juodo kryžiaus žemyn,; žalią mygtuką su brūkšneliu, jei norite nutolinti; arba žalių rodyklių gretimoms žemėlapius.


METAR-TAF: